createdAt,value
2018-12-23T00:01:49.483Z,3.03
2018-12-23T00:04:16.933Z,2.40
2018-12-23T00:06:44.367Z,3.20
2018-12-23T00:09:11.799Z,2.77
2018-12-23T00:11:39.270Z,3.63
2018-12-23T00:14:06.757Z,2.30
2018-12-23T00:16:34.255Z,2.77
2018-12-23T00:19:01.743Z,2.20
2018-12-23T00:21:29.445Z,1.70
2018-12-23T00:23:56.960Z,2.53
2018-12-23T00:26:24.504Z,2.53
2018-12-23T00:28:51.986Z,2.00
2018-12-23T00:31:19.477Z,2.20
2018-12-23T00:33:46.931Z,2.10
2018-12-23T00:36:14.594Z,2.50
2018-12-23T00:38:42.160Z,2.60
2018-12-23T00:41:09.657Z,3.10
2018-12-23T00:43:37.135Z,2.10
2018-12-23T00:46:04.690Z,2.47
2018-12-23T00:48:32.173Z,2.90
2018-12-23T00:50:59.558Z,1.90
2018-12-23T00:53:27.042Z,2.00
2018-12-23T00:55:54.700Z,2.03
2018-12-23T00:58:22.235Z,1.90
2018-12-23T01:00:49.694Z,1.43
2018-12-23T01:03:17.173Z,1.73
2018-12-23T01:05:44.751Z,1.67
2018-12-23T01:08:12.231Z,2.33
2018-12-23T01:10:39.946Z,1.87
2018-12-23T01:13:07.443Z,2.40
2018-12-23T01:15:34.900Z,1.80
2018-12-23T01:18:02.341Z,2.20
2018-12-23T01:20:29.830Z,1.80
2018-12-23T01:22:57.290Z,2.17
2018-12-23T01:25:24.855Z,1.97
2018-12-23T01:27:52.343Z,1.67
2018-12-23T01:30:19.935Z,2.83
2018-12-23T01:32:47.424Z,2.60
2018-12-23T01:35:15.032Z,1.80
2018-12-23T01:37:42.540Z,1.60
2018-12-23T01:40:10.052Z,2.20
2018-12-23T01:42:37.622Z,1.63
2018-12-23T01:45:05.245Z,2.00
2018-12-23T01:47:32.768Z,2.00
2018-12-23T01:50:00.838Z,1.90
2018-12-23T01:52:28.367Z,1.93
2018-12-23T01:54:55.850Z,1.80
2018-12-23T01:57:23.309Z,3.17
2018-12-23T01:59:50.747Z,2.13
2018-12-23T02:02:18.212Z,2.20
2018-12-23T02:04:45.662Z,2.13
2018-12-23T02:07:14.305Z,2.03
2018-12-23T02:09:41.807Z,2.70
2018-12-23T02:12:09.343Z,2.33
2018-12-23T02:14:36.860Z,2.10
2018-12-23T02:17:04.345Z,2.53
2018-12-23T02:19:31.804Z,2.40
2018-12-23T02:21:59.364Z,1.80
2018-12-23T02:24:26.862Z,2.40
2018-12-23T02:26:54.407Z,2.20
2018-12-23T02:29:21.832Z,1.73
2018-12-23T02:31:49.299Z,2.23
2018-12-23T02:34:16.796Z,1.80
2018-12-23T02:36:44.256Z,2.20
2018-12-23T02:39:11.742Z,2.33
2018-12-23T02:41:39.209Z,2.30
2018-12-23T02:44:06.694Z,1.60
2018-12-23T02:46:34.164Z,1.97
2018-12-23T02:49:01.647Z,1.63
2018-12-23T02:51:29.341Z,1.80
2018-12-23T02:53:56.777Z,1.70
2018-12-23T02:56:24.161Z,2.00
2018-12-23T02:58:51.610Z,2.10
2018-12-23T03:01:19.073Z,1.60
2018-12-23T03:03:46.596Z,1.97
2018-12-23T03:06:14.077Z,1.50
2018-12-23T03:08:41.596Z,2.40
2018-12-23T03:11:09.256Z,1.77
2018-12-23T03:13:36.698Z,2.50
2018-12-23T03:16:04.172Z,2.40
2018-12-23T03:18:31.752Z,1.90
2018-12-23T03:20:59.341Z,3.00
2018-12-23T03:23:26.845Z,3.03
2018-12-23T03:25:54.371Z,3.47
2018-12-23T03:28:21.902Z,2.30
2018-12-23T03:30:49.373Z,2.50
2018-12-23T03:33:16.963Z,2.23
2018-12-23T03:35:44.585Z,2.03
2018-12-23T03:38:12.216Z,2.10
2018-12-23T03:40:39.851Z,2.10
2018-12-23T03:43:07.439Z,2.80
2018-12-23T03:45:34.944Z,2.30
2018-12-23T03:48:02.534Z,2.67
2018-12-23T03:50:30.031Z,1.90
2018-12-23T03:52:57.473Z,2.57
2018-12-23T03:55:24.991Z,2.40
2018-12-23T03:57:52.351Z,2.30
2018-12-23T04:00:19.941Z,3.30
2018-12-23T04:02:47.408Z,2.37
2018-12-23T04:05:14.811Z,2.77
2018-12-23T04:07:42.355Z,2.23
2018-12-23T04:10:09.769Z,2.03
2018-12-23T04:12:37.253Z,3.03
2018-12-23T04:15:05.139Z,2.07
2018-12-23T04:17:32.934Z,2.63
2018-12-23T04:20:00.322Z,2.57
2018-12-23T04:22:27.777Z,2.67
2018-12-23T04:24:55.243Z,3.00
2018-12-23T04:27:22.713Z,2.80
2018-12-23T04:29:50.174Z,2.80
2018-12-23T04:32:17.683Z,3.33
2018-12-23T04:34:45.166Z,3.60
2018-12-23T04:37:12.811Z,2.57
2018-12-23T04:39:40.374Z,3.13
2018-12-23T04:42:07.802Z,2.53
2018-12-23T04:44:35.343Z,3.20
2018-12-23T04:47:02.790Z,4.17
2018-12-23T04:49:31.322Z,3.93
2018-12-23T04:52:05.849Z,3.40
2018-12-23T04:54:33.377Z,3.67
2018-12-23T04:57:00.901Z,4.03
2018-12-23T04:59:28.453Z,4.00
2018-12-23T05:01:56.014Z,3.70
2018-12-23T05:04:23.536Z,3.00
2018-12-23T05:06:50.944Z,4.70
2018-12-23T05:09:18.472Z,5.77
2018-12-23T05:11:45.938Z,4.20
2018-12-23T05:14:13.403Z,3.80
2018-12-23T05:16:40.904Z,4.67
2018-12-23T05:19:08.482Z,4.10
2018-12-23T05:21:35.981Z,3.33
2018-12-23T05:24:03.389Z,4.27
2018-12-23T05:26:30.856Z,4.13
2018-12-23T05:28:58.399Z,3.20
2018-12-23T05:31:25.821Z,3.30
2018-12-23T05:33:53.365Z,4.30
2018-12-23T05:36:20.881Z,3.50
2018-12-23T05:38:48.316Z,3.80
2018-12-23T05:41:15.785Z,3.47
2018-12-23T05:43:43.283Z,3.90
2018-12-23T05:46:10.780Z,4.20
2018-12-23T05:48:38.169Z,3.97
2018-12-23T05:51:05.647Z,3.43
2018-12-23T05:53:33.121Z,3.17
2018-12-23T05:55:59.629Z,4.03
2018-12-23T05:58:28.247Z,3.80
2018-12-23T06:00:55.849Z,3.40
2018-12-23T06:03:23.413Z,4.23
2018-12-23T06:05:50.947Z,3.40
2018-12-23T06:08:18.475Z,3.73
2018-12-23T06:10:46.006Z,3.43
2018-12-23T06:13:13.432Z,3.70
2018-12-23T06:15:40.938Z,5.10
2018-12-23T06:18:08.407Z,5.03
2018-12-23T06:20:35.910Z,3.83
2018-12-23T06:23:03.574Z,3.57
2018-12-23T06:25:31.307Z,5.70
2018-12-23T06:27:58.789Z,3.83
2018-12-23T06:30:26.263Z,3.20
2018-12-23T06:32:53.770Z,3.00
2018-12-23T06:35:21.222Z,4.70
2018-12-23T06:37:48.671Z,3.97
2018-12-23T06:40:16.695Z,4.20
2018-12-23T06:42:44.161Z,3.70
2018-12-23T06:45:11.728Z,4.17
2018-12-23T06:47:39.294Z,3.70
2018-12-23T06:50:06.951Z,4.90
2018-12-23T06:52:34.560Z,4.13
2018-12-23T06:55:02.099Z,4.20
2018-12-23T06:57:29.537Z,5.23
2018-12-23T06:59:57.080Z,4.60
2018-12-23T07:02:24.640Z,3.87
2018-12-23T07:04:52.209Z,4.33
2018-12-23T07:07:19.647Z,3.73
2018-12-23T07:09:47.196Z,5.07
2018-12-23T07:12:14.697Z,4.27
2018-12-23T07:14:42.218Z,4.07
2018-12-23T07:17:09.888Z,4.40
2018-12-23T07:19:37.394Z,5.40
2018-12-23T07:22:04.972Z,5.13
2018-12-23T07:24:32.385Z,4.90
2018-12-23T07:26:59.973Z,4.80
2018-12-23T07:29:27.718Z,5.40
2018-12-23T07:31:55.290Z,4.07
2018-12-23T07:34:22.768Z,4.30
2018-12-23T07:36:50.245Z,4.20
2018-12-23T07:39:17.657Z,5.27
2018-12-23T07:41:45.294Z,5.00
2018-12-23T07:44:12.770Z,5.23
2018-12-23T07:46:40.258Z,6.40
2018-12-23T07:49:07.675Z,5.90
2018-12-23T07:51:35.238Z,6.40
2018-12-23T07:54:02.653Z,8.93
2018-12-23T07:56:30.067Z,5.60
2018-12-23T07:58:57.439Z,5.60
2018-12-23T08:01:25.040Z,5.73
2018-12-23T08:03:52.728Z,8.00
2018-12-23T08:06:20.156Z,5.87
2018-12-23T08:08:47.790Z,5.97
2018-12-23T08:11:15.382Z,5.30
2018-12-23T08:13:43.261Z,4.97
2018-12-23T08:16:10.701Z,4.50
2018-12-23T08:18:38.343Z,6.33
2018-12-23T08:21:05.849Z,5.40
2018-12-23T08:23:33.388Z,6.00
2018-12-23T08:26:00.915Z,6.47
2018-12-23T08:28:28.563Z,4.27
2018-12-23T08:30:56.108Z,6.33
2018-12-23T08:33:23.670Z,5.70
2018-12-23T08:35:51.150Z,5.00
2018-12-23T08:38:25.517Z,4.60
2018-12-23T08:40:52.915Z,4.47
2018-12-23T08:43:20.382Z,5.90
2018-12-23T08:45:47.830Z,6.53
2018-12-23T08:48:15.395Z,6.80
2018-12-23T08:50:42.937Z,8.13
2018-12-23T08:53:10.393Z,5.73
2018-12-23T08:55:37.886Z,5.03
2018-12-23T08:58:05.408Z,6.00
2018-12-23T09:00:32.927Z,5.57
2018-12-23T09:03:00.400Z,4.83
2018-12-23T09:05:27.899Z,5.80
2018-12-23T09:07:55.383Z,5.00
2018-12-23T09:10:22.860Z,5.43
2018-12-23T09:12:50.491Z,6.60
2018-12-23T09:15:18.962Z,7.00
2018-12-23T09:17:46.441Z,6.60
2018-12-23T09:20:13.895Z,8.13
2018-12-23T09:22:41.458Z,8.30
2018-12-23T09:25:08.924Z,5.90
2018-12-23T09:27:36.462Z,6.60
2018-12-23T09:30:05.161Z,10.10
2018-12-23T09:32:32.798Z,9.73
2018-12-23T09:35:00.308Z,6.60
2018-12-23T09:37:30.798Z,4.70
2018-12-23T09:40:05.129Z,5.00
2018-12-23T09:42:32.773Z,3.80
2018-12-23T09:45:07.254Z,4.90
2018-12-23T09:47:34.793Z,4.17
2018-12-23T09:50:02.300Z,4.57
2018-12-23T09:52:29.743Z,4.57
2018-12-23T09:54:57.362Z,5.60
2018-12-23T09:57:24.878Z,5.73
2018-12-23T09:59:52.406Z,5.27
2018-12-23T10:02:20.027Z,5.87
2018-12-23T10:04:47.518Z,4.17
2018-12-23T10:07:14.993Z,5.00
2018-12-23T10:09:42.536Z,3.87
2018-12-23T10:12:10.042Z,4.40
2018-12-23T10:14:37.463Z,4.10
2018-12-23T10:17:04.935Z,4.27
2018-12-23T10:19:32.517Z,5.73
2018-12-23T10:22:00.026Z,4.73
2018-12-23T10:24:27.538Z,5.47
2018-12-23T10:26:55.020Z,5.90
2018-12-23T10:30:22.336Z,6.00
2018-12-23T10:33:03.022Z,6.13
2018-12-23T10:35:43.095Z,5.40
2018-12-23T10:38:23.280Z,5.13
2018-12-23T10:41:03.872Z,5.07
2018-12-23T10:43:44.346Z,4.80
2018-12-23T10:46:25.358Z,5.90
2018-12-23T10:49:05.423Z,4.73
2018-12-23T10:51:46.050Z,5.30
2018-12-23T10:54:26.861Z,4.70
2018-12-23T10:57:07.315Z,6.20
2018-12-23T10:59:47.608Z,6.10
2018-12-23T11:02:28.658Z,5.83
2018-12-23T11:05:09.023Z,5.80
2018-12-23T11:07:49.325Z,5.07
2018-12-23T11:10:29.696Z,6.83
2018-12-23T11:13:10.290Z,5.50
2018-12-23T11:15:52.044Z,5.00
2018-12-23T11:18:32.512Z,5.87
2018-12-23T11:21:13.272Z,5.60
2018-12-23T11:23:41.539Z,6.30
2018-12-23T11:26:21.912Z,5.70
2018-12-23T11:29:02.278Z,6.60
2018-12-23T11:31:42.647Z,6.63
2018-12-23T11:34:21.398Z,5.93
2018-12-23T11:37:08.760Z,9.57
2018-12-23T11:39:49.541Z,9.37
2018-12-23T11:42:30.136Z,9.50
2018-12-23T11:45:11.506Z,8.13
2018-12-23T11:47:51.518Z,7.40
2018-12-23T11:50:32.214Z,7.10
2018-12-23T11:53:12.616Z,7.13
2018-12-23T11:55:53.037Z,7.73
2018-12-23T11:58:33.461Z,6.87
2018-12-23T12:01:14.156Z,6.83
2018-12-23T12:03:54.921Z,6.60
2018-12-23T12:06:35.362Z,6.60
2018-12-23T12:09:16.182Z,7.90
2018-12-23T12:11:56.744Z,7.73
2018-12-23T12:14:37.599Z,7.03
2018-12-23T12:17:17.637Z,7.50
2018-12-23T12:19:58.199Z,6.33
2018-12-23T12:22:38.460Z,7.07
2018-12-23T12:25:19.057Z,5.67
2018-12-23T12:27:59.382Z,5.40
2018-12-23T12:30:39.568Z,4.67
2018-12-23T12:33:20.015Z,5.87
2018-12-23T12:36:00.894Z,7.83
2018-12-23T12:38:40.850Z,6.67
2018-12-23T12:41:21.386Z,3.90
2018-12-23T12:44:01.601Z,3.60
2018-12-23T12:46:42.253Z,3.23
2018-12-23T12:49:22.353Z,3.77
2018-12-23T12:52:02.825Z,3.40
2018-12-23T12:54:43.187Z,4.00
2018-12-23T12:57:24.071Z,5.57
2018-12-23T13:00:04.533Z,4.90
2018-12-23T13:02:45.119Z,4.00
2018-12-23T13:05:26.019Z,4.80
2018-12-23T13:08:06.309Z,4.70
2018-12-23T13:10:47.036Z,4.23
2018-12-23T13:13:27.134Z,4.30
2018-12-23T13:16:07.725Z,3.03
2018-12-23T13:18:48.425Z,4.23
2018-12-23T13:21:28.733Z,4.67
2018-12-23T13:24:09.360Z,4.70
2018-12-23T13:26:49.678Z,4.43
2018-12-23T13:29:30.019Z,3.43
2018-12-23T13:32:10.536Z,4.27
2018-12-23T13:34:50.959Z,3.20
2018-12-23T13:37:31.386Z,4.43
2018-12-23T13:40:12.165Z,3.80
2018-12-23T13:42:52.301Z,3.57
2018-12-23T13:45:32.878Z,3.60
2018-12-23T13:48:13.498Z,3.30
2018-12-23T13:50:53.520Z,3.30
2018-12-23T13:53:34.036Z,3.10
2018-12-23T13:56:14.554Z,3.00
2018-12-23T13:58:55.029Z,3.53
2018-12-23T14:01:35.415Z,2.90
2018-12-23T14:04:15.862Z,3.10
2018-12-23T14:06:56.704Z,3.20
2018-12-23T14:09:37.084Z,2.47
2018-12-23T14:12:17.572Z,4.03
2018-12-23T14:14:58.000Z,2.40
2018-12-23T14:17:38.051Z,2.93
2018-12-23T14:20:18.562Z,2.10
2018-12-23T14:22:59.129Z,2.03
2018-12-23T14:25:39.896Z,2.40
2018-12-23T14:28:20.431Z,2.27
2018-12-23T14:31:00.920Z,2.47
2018-12-23T14:33:41.660Z,1.90
2018-12-23T14:36:22.415Z,1.97
2018-12-23T14:39:04.160Z,1.90
2018-12-23T14:41:44.944Z,1.90
2018-12-23T14:44:25.532Z,1.87
2018-12-23T14:47:05.942Z,1.93
2018-12-23T14:49:46.370Z,1.70
2018-12-23T14:52:27.132Z,2.40
2018-12-23T14:55:07.560Z,1.70
2018-12-23T14:57:47.838Z,2.27
2018-12-23T15:00:28.219Z,2.20
2018-12-23T15:03:09.158Z,2.47
2018-12-23T15:05:49.428Z,2.80
2018-12-23T15:08:29.583Z,2.20
2018-12-23T15:11:10.326Z,3.00
2018-12-23T15:13:50.496Z,2.07
2018-12-23T15:16:30.935Z,2.23
2018-12-23T15:19:11.366Z,2.43
2018-12-23T15:21:51.719Z,2.27
2018-12-23T15:24:32.364Z,2.20
2018-12-23T15:27:13.060Z,2.03
2018-12-23T15:29:53.684Z,2.30
2018-12-23T15:32:34.089Z,2.27
2018-12-23T15:35:14.956Z,2.10
2018-12-23T15:37:55.368Z,2.30
2018-12-23T15:40:35.730Z,1.73
2018-12-23T15:43:16.316Z,2.53
2018-12-23T15:45:56.924Z,2.30
2018-12-23T15:48:37.416Z,1.70
2018-12-23T15:51:17.876Z,2.00
2018-12-23T15:53:58.149Z,2.30
2018-12-23T15:56:38.922Z,2.43
2018-12-23T15:59:19.546Z,2.53
2018-12-23T16:02:00.063Z,2.73
2018-12-23T16:04:40.824Z,2.37
2018-12-23T16:07:21.217Z,2.50
2018-12-23T16:10:02.077Z,1.90
2018-12-23T16:12:42.201Z,2.20
2018-12-23T16:15:22.684Z,1.67
2018-12-23T16:18:03.072Z,2.60
2018-12-23T16:20:43.551Z,4.37
2018-12-23T16:23:23.684Z,4.17
2018-12-23T16:26:04.165Z,4.30
2018-12-23T16:28:45.960Z,3.03
2018-12-23T16:31:26.498Z,2.87
2018-12-23T16:34:06.881Z,2.60
2018-12-23T16:36:47.585Z,3.27
2018-12-23T16:39:28.044Z,2.23
2018-12-23T16:42:08.285Z,2.20
2018-12-23T16:44:48.833Z,2.50
2018-12-23T16:47:29.776Z,2.60
2018-12-23T16:50:10.073Z,2.57
2018-12-23T16:52:50.421Z,2.13
2018-12-23T16:55:31.145Z,2.80
2018-12-23T16:58:11.606Z,2.40
2018-12-23T17:00:51.803Z,2.50
2018-12-23T17:03:32.319Z,2.83
2018-12-23T17:06:13.165Z,2.37
2018-12-23T17:08:53.384Z,1.53
2018-12-23T17:11:33.752Z,2.57
2018-12-23T17:14:14.345Z,1.67
2018-12-23T17:16:54.571Z,2.90
2018-12-23T17:19:35.121Z,2.00
2018-12-23T17:22:15.687Z,2.00
2018-12-23T17:24:56.207Z,1.60
2018-12-23T17:27:36.582Z,1.77
2018-12-23T17:30:17.206Z,2.07
2018-12-23T17:32:57.603Z,1.40
2018-12-23T17:35:38.551Z,1.60
2018-12-23T17:38:19.003Z,1.57
2018-12-23T17:40:59.758Z,1.27
2018-12-23T17:43:40.329Z,1.20
2018-12-23T17:46:20.712Z,1.30
2018-12-23T17:49:01.324Z,1.73
2018-12-23T17:51:41.728Z,1.80
2018-12-23T17:54:22.297Z,1.60
2018-12-23T17:57:02.668Z,1.50
2018-12-23T17:59:43.356Z,1.70
2018-12-23T18:02:23.747Z,1.87
2018-12-23T18:05:04.039Z,1.70
2018-12-23T18:07:44.464Z,1.90
2018-12-23T18:10:25.090Z,1.73
2018-12-23T18:13:06.000Z,2.63
2018-12-23T18:15:46.388Z,1.87
2018-12-23T18:18:27.010Z,1.67
2018-12-23T18:21:07.538Z,1.70
2018-12-23T18:23:47.997Z,1.50
2018-12-23T18:26:28.562Z,1.77
2018-12-23T18:29:09.098Z,2.00
2018-12-23T18:31:49.582Z,1.80
2018-12-23T18:34:29.935Z,1.40
2018-12-23T18:37:10.285Z,1.97
2018-12-23T18:39:50.757Z,1.77
2018-12-23T18:42:31.203Z,2.30
2018-12-23T18:45:11.864Z,1.73
2018-12-23T18:47:52.179Z,3.43
2018-12-23T18:50:32.564Z,2.97
2018-12-23T18:53:13.227Z,3.50
2018-12-23T18:55:54.028Z,1.93
2018-12-23T18:58:34.538Z,1.63
2018-12-23T19:01:14.919Z,1.67
2018-12-23T19:03:55.892Z,1.47
2018-12-23T19:06:36.026Z,1.83
2018-12-23T19:09:17.077Z,1.50
2018-12-23T19:11:57.310Z,2.10
2018-12-23T19:14:38.091Z,2.27
2018-12-23T19:17:18.395Z,2.77
2018-12-23T19:19:58.989Z,3.43
2018-12-23T19:22:39.168Z,2.27
2018-12-23T19:25:19.623Z,1.40
2018-12-23T19:28:00.301Z,1.10
2018-12-23T19:30:40.859Z,1.53
2018-12-23T19:33:21.557Z,2.13
2018-12-23T19:36:01.969Z,1.90
2018-12-23T19:38:42.394Z,1.10
2018-12-23T19:41:22.737Z,1.77
2018-12-23T19:47:24.183Z,1.57
2018-12-23T19:50:04.731Z,1.47
2018-12-23T19:52:45.062Z,0.90
2018-12-23T19:55:25.838Z,1.33
2018-12-23T19:58:05.620Z,1.23
2018-12-23T20:00:45.989Z,1.10
2018-12-23T20:03:26.446Z,1.27
2018-12-23T20:06:07.208Z,1.80
2018-12-23T20:08:47.396Z,1.97
2018-12-23T20:11:28.352Z,1.50
2018-12-23T20:14:08.257Z,1.50
2018-12-23T20:16:48.874Z,1.33
2018-12-23T20:19:29.532Z,1.33
2018-12-23T20:22:10.264Z,0.90
2018-12-23T20:24:50.973Z,1.00
2018-12-23T20:27:31.027Z,1.07
2018-12-23T20:30:11.832Z,0.90
2018-12-23T20:32:54.856Z,1.00
2018-12-23T20:35:35.665Z,0.97
2018-12-23T20:38:16.144Z,1.50
2018-12-23T20:40:56.327Z,0.87
2018-12-23T20:43:36.193Z,1.03
2018-12-23T20:46:17.128Z,0.80
2018-12-23T20:48:57.932Z,1.10
2018-12-23T20:51:38.964Z,1.20
2018-12-23T20:54:19.193Z,1.30
2018-12-23T20:56:59.757Z,1.00
2018-12-23T20:59:40.480Z,0.80
2018-12-23T21:02:21.464Z,1.10
2018-12-23T21:05:01.652Z,0.80
2018-12-23T21:07:42.144Z,1.20
2018-12-23T21:10:22.615Z,0.70
2018-12-23T21:13:03.227Z,0.90
2018-12-23T21:15:43.617Z,0.70
2018-12-23T21:18:24.212Z,0.70
2018-12-23T21:21:04.481Z,0.50
2018-12-23T21:23:46.987Z,0.63
2018-12-23T21:26:27.577Z,0.60
2018-12-23T21:29:08.258Z,0.80
2018-12-23T21:31:49.196Z,0.80
2018-12-23T21:34:29.769Z,1.00
2018-12-23T21:37:10.165Z,0.90
2018-12-23T21:39:51.490Z,0.70
2018-12-23T21:42:32.556Z,0.80
2018-12-23T21:45:13.405Z,0.50
2018-12-23T21:47:53.834Z,0.60
2018-12-23T21:50:34.667Z,0.70
2018-12-23T21:53:14.628Z,0.70
2018-12-23T21:55:55.174Z,0.70
2018-12-23T21:58:35.536Z,0.60
2018-12-23T22:01:16.284Z,0.80
2018-12-23T22:03:56.385Z,0.80
2018-12-23T22:06:36.599Z,0.80
2018-12-23T22:09:17.761Z,0.80
2018-12-23T22:11:57.963Z,0.70
2018-12-23T22:14:38.482Z,0.70
2018-12-23T22:17:18.979Z,0.70
2018-12-23T22:19:59.557Z,0.60
2018-12-23T22:22:40.036Z,0.73
2018-12-23T22:25:20.725Z,0.60
2018-12-23T22:28:01.203Z,0.40
2018-12-23T22:30:41.694Z,0.60
2018-12-23T22:33:22.312Z,0.77
2018-12-23T22:36:02.529Z,0.60
2018-12-23T22:38:43.383Z,0.60
2018-12-23T22:41:23.843Z,0.80
2018-12-23T22:44:04.283Z,0.70
2018-12-23T22:46:44.415Z,0.60
2018-12-23T22:49:25.121Z,0.67
2018-12-23T22:52:05.656Z,0.70
2018-12-23T22:54:46.169Z,0.70
2018-12-23T22:57:26.795Z,0.80
2018-12-23T23:00:06.858Z,0.67
2018-12-23T23:02:48.934Z,0.70
2018-12-23T23:05:29.015Z,1.00
2018-12-23T23:08:09.351Z,0.70
2018-12-23T23:10:49.910Z,0.63
2018-12-23T23:13:30.806Z,0.70
2018-12-23T23:16:10.272Z,0.77
2018-12-23T23:18:57.722Z,0.87
2018-12-23T23:21:38.345Z,0.60
2018-12-23T23:24:18.949Z,0.60
2018-12-23T23:26:59.696Z,0.90
2018-12-23T23:29:40.450Z,0.60
2018-12-23T23:32:20.529Z,0.50
2018-12-23T23:35:01.040Z,0.67
2018-12-23T23:37:41.738Z,0.77
2018-12-23T23:40:21.966Z,0.57
2018-12-23T23:43:02.440Z,0.70
2018-12-23T23:45:43.846Z,0.67
2018-12-23T23:48:24.380Z,0.60
2018-12-23T23:51:04.697Z,0.60
2018-12-23T23:53:45.093Z,0.60
2018-12-23T23:56:25.634Z,0.80
2018-12-23T23:59:06.325Z,0.50
